createdAt,value
2023-01-29T00:02:18.024Z,0.20
2023-01-29T00:04:44.773Z,0.20
2023-01-29T00:07:11.529Z,0.20
2023-01-29T00:09:38.291Z,0.20
2023-01-29T00:12:05.009Z,0.20
2023-01-29T00:14:31.694Z,0.10
2023-01-29T00:16:58.585Z,0.10
2023-01-29T00:19:25.303Z,0.00
2023-01-29T00:21:52.015Z,0.00
2023-01-29T00:24:18.767Z,-0.10
2023-01-29T00:26:45.570Z,0.00
2023-01-29T00:29:12.290Z,-0.10
2023-01-29T00:31:38.985Z,0.00
2023-01-29T00:34:07.160Z,-0.20
2023-01-29T00:36:33.929Z,-0.10
2023-01-29T00:39:02.561Z,-0.10
2023-01-29T00:41:49.329Z,-0.20
2023-01-29T00:44:35.049Z,-0.10
2023-01-29T00:47:01.814Z,-0.10
2023-01-29T00:49:30.161Z,-0.10
2023-01-29T00:52:16.768Z,-0.10
2023-01-29T00:54:43.443Z,0.00
2023-01-29T00:57:10.111Z,-0.10
2023-01-29T00:59:37.680Z,-0.10
2023-01-29T01:02:23.016Z,-0.20
2023-01-29T01:04:49.809Z,-0.20
2023-01-29T01:07:16.509Z,-0.30
2023-01-29T01:10:01.622Z,-0.30
2023-01-29T01:12:28.555Z,-0.30
2023-01-29T01:14:55.338Z,-0.20
2023-01-29T01:17:22.092Z,-0.20
2023-01-29T01:19:48.835Z,-0.30
2023-01-29T01:22:15.551Z,-0.40
2023-01-29T01:24:43.700Z,-0.40
2023-01-29T01:27:10.426Z,-0.30
2023-01-29T01:29:37.116Z,-0.30
2023-01-29T01:32:03.985Z,-0.30
2023-01-29T01:34:30.662Z,-0.30
2023-01-29T01:36:57.466Z,-0.30
2023-01-29T01:39:24.865Z,-0.30
2023-01-29T01:41:55.249Z,-0.20
2023-01-29T01:44:53.316Z,-0.20
2023-01-29T01:47:22.700Z,-0.20
2023-01-29T01:49:49.368Z,-0.30
2023-01-29T01:52:16.591Z,-0.30
2023-01-29T01:54:43.566Z,-0.30
2023-01-29T01:57:16.117Z,-0.30
2023-01-29T01:59:48.120Z,-0.30
2023-01-29T02:02:33.883Z,-0.20
2023-01-29T02:05:19.160Z,-0.40
2023-01-29T02:08:05.891Z,-0.30
2023-01-29T02:10:43.237Z,-0.20
2023-01-29T02:13:10.309Z,-0.20
2023-01-29T02:15:37.394Z,-0.40
2023-01-29T02:18:04.149Z,-0.30
2023-01-29T02:20:31.941Z,-0.30
2023-01-29T02:23:07.593Z,-0.20
2023-01-29T02:25:53.024Z,-0.20
2023-01-29T02:28:45.699Z,-0.30
2023-01-29T02:31:33.591Z,-0.30
2023-01-29T02:34:19.198Z,-0.40
2023-01-29T02:37:08.612Z,-0.30
2023-01-29T02:39:58.507Z,-0.20
2023-01-29T02:42:27.127Z,-0.30
2023-01-29T02:45:00.634Z,-0.20
2023-01-29T02:47:30.862Z,-0.20
2023-01-29T02:50:03.166Z,-0.20
2023-01-29T02:52:35.932Z,-0.20
2023-01-29T02:55:36.418Z,-0.10
2023-01-29T02:58:13.533Z,-0.20
2023-01-29T03:00:42.624Z,-0.20
2023-01-29T03:03:25.052Z,-0.20
2023-01-29T03:06:28.297Z,-0.20
2023-01-29T03:08:59.184Z,-0.20
2023-01-29T03:11:26.870Z,-0.10
2023-01-29T03:14:03.375Z,-0.10
2023-01-29T03:16:45.812Z,-0.10
2023-01-29T03:19:27.471Z,-0.10
2023-01-29T03:22:01.954Z,-0.10
2023-01-29T03:25:13.354Z,-0.20
2023-01-29T03:28:04.995Z,-0.20
2023-01-29T03:30:59.701Z,-0.10
2023-01-29T03:33:36.328Z,-0.20
2023-01-29T03:36:08.829Z,-0.20
2023-01-29T03:38:35.564Z,-0.10
2023-01-29T03:41:04.111Z,-0.10
2023-01-29T03:43:37.371Z,-0.10
2023-01-29T03:46:08.784Z,-0.10
2023-01-29T03:48:40.284Z,-0.10
2023-01-29T03:51:22.608Z,-0.20
2023-01-29T03:54:14.251Z,-0.10
2023-01-29T03:57:15.440Z,-0.10
2023-01-29T03:59:50.151Z,-0.10
2023-01-29T04:02:42.833Z,-0.20
2023-01-29T04:05:14.880Z,-0.20
2023-01-29T04:07:56.508Z,-0.30
2023-01-29T04:10:25.376Z,-0.40
2023-01-29T04:13:02.093Z,-0.30
2023-01-29T04:15:31.040Z,-0.30
2023-01-29T04:17:57.897Z,-0.30
2023-01-29T04:20:37.139Z,-0.20
2023-01-29T04:23:06.225Z,-0.20
2023-01-29T04:25:44.881Z,-0.20
2023-01-29T04:28:16.265Z,-0.30
2023-01-29T04:31:13.725Z,-0.20
2023-01-29T04:34:03.087Z,-0.20
2023-01-29T04:36:41.787Z,-0.40
2023-01-29T04:39:22.292Z,-0.50
2023-01-29T04:42:05.498Z,-0.50
2023-01-29T04:44:53.924Z,-0.50
2023-01-29T04:47:42.826Z,-0.50
2023-01-29T04:50:29.225Z,-0.40
2023-01-29T04:53:01.562Z,-0.50
2023-01-29T04:55:43.847Z,-0.50
2023-01-29T04:58:22.743Z,-0.50
2023-01-29T05:00:50.319Z,-0.40
2023-01-29T05:03:17.049Z,-0.40
2023-01-29T05:05:47.978Z,-0.40
2023-01-29T05:08:20.432Z,-0.50
2023-01-29T05:10:47.874Z,-0.50
2023-01-29T05:13:14.898Z,-0.50
2023-01-29T05:15:56.438Z,-0.60
2023-01-29T05:18:23.239Z,-0.70
2023-01-29T05:20:49.953Z,-0.60
2023-01-29T05:23:20.980Z,-0.60
2023-01-29T05:25:48.471Z,-0.60
2023-01-29T05:28:18.456Z,-0.60
2023-01-29T05:30:46.031Z,-0.60
2023-01-29T05:33:16.481Z,-0.50
2023-01-29T05:35:43.377Z,-0.50
2023-01-29T05:38:10.127Z,-0.50
2023-01-29T05:40:37.080Z,-0.50
2023-01-29T05:43:04.426Z,-0.60
2023-01-29T05:45:31.629Z,-0.50
2023-01-29T05:47:58.725Z,-0.50
2023-01-29T05:50:27.565Z,-0.50
2023-01-29T05:53:01.422Z,-0.50
2023-01-29T05:55:29.542Z,-0.50
2023-01-29T05:57:56.272Z,-0.50
2023-01-29T06:00:23.032Z,-0.50
2023-01-29T06:02:49.940Z,-0.60
2023-01-29T06:05:16.889Z,-0.60
2023-01-29T06:07:45.254Z,-0.60
2023-01-29T06:10:16.459Z,-0.60
2023-01-29T06:12:43.549Z,-0.50
2023-01-29T06:15:12.611Z,-0.50
2023-01-29T06:17:39.324Z,-0.50
2023-01-29T06:20:06.570Z,-0.50
2023-01-29T06:22:33.401Z,-0.50
2023-01-29T06:25:00.387Z,-0.50
2023-01-29T06:27:27.575Z,-0.50
2023-01-29T06:29:54.242Z,-0.50
2023-01-29T06:32:20.922Z,-0.50
2023-01-29T06:34:49.669Z,-0.40
2023-01-29T06:37:16.821Z,-0.40
2023-01-29T06:39:43.474Z,-0.50
2023-01-29T06:42:11.144Z,-0.50
2023-01-29T06:44:38.051Z,-0.40
2023-01-29T06:47:04.787Z,-0.40
2023-01-29T06:49:31.597Z,-0.50
2023-01-29T06:51:58.273Z,-0.50
2023-01-29T06:54:24.963Z,-0.60
2023-01-29T06:56:51.840Z,-0.50
2023-01-29T06:59:18.506Z,-0.50
2023-01-29T07:01:45.352Z,-0.60
2023-01-29T07:04:12.105Z,-0.50
2023-01-29T07:06:39.549Z,-0.60
2023-01-29T07:09:06.308Z,-0.50
2023-01-29T07:11:34.603Z,-0.60
2023-01-29T07:14:01.342Z,-0.60
2023-01-29T07:16:28.487Z,-0.50
2023-01-29T07:18:55.230Z,-0.50
2023-01-29T07:21:22.928Z,-0.40
2023-01-29T07:23:50.156Z,-0.40
2023-01-29T07:26:16.848Z,-0.50
2023-01-29T07:28:44.266Z,-0.60
2023-01-29T07:31:12.452Z,-0.60
2023-01-29T07:33:39.566Z,-0.60
2023-01-29T07:36:09.937Z,-0.60
2023-01-29T07:38:37.196Z,-0.60
2023-01-29T07:41:03.977Z,-0.50
2023-01-29T07:43:30.816Z,-0.50
2023-01-29T07:46:00.879Z,-0.60
2023-01-29T07:48:27.555Z,-0.60
2023-01-29T07:50:57.463Z,-0.60
2023-01-29T07:53:24.416Z,-0.60
2023-01-29T07:55:51.503Z,-0.60
2023-01-29T07:58:18.224Z,-0.50
2023-01-29T08:00:45.708Z,-0.50
2023-01-29T08:03:16.795Z,-0.50
2023-01-29T08:05:44.543Z,-0.40
2023-01-29T08:08:11.301Z,-0.50
2023-01-29T08:10:38.435Z,-0.50
2023-01-29T08:13:06.354Z,-0.40
2023-01-29T08:15:33.171Z,-0.40
2023-01-29T08:18:01.386Z,-0.40
2023-01-29T08:20:28.193Z,-0.50
2023-01-29T08:23:06.708Z,-0.50
2023-01-29T08:25:33.767Z,-0.50
2023-01-29T08:28:00.894Z,-0.60
2023-01-29T08:30:29.780Z,-0.60
2023-01-29T08:32:56.459Z,-0.70
2023-01-29T08:35:23.242Z,-0.70
2023-01-29T08:37:58.221Z,-0.70
2023-01-29T08:40:25.274Z,-0.70
2023-01-29T08:42:52.056Z,-0.60
2023-01-29T08:45:18.828Z,-0.50
2023-01-29T08:47:47.010Z,-0.50
2023-01-29T08:50:13.995Z,-0.60
2023-01-29T08:52:40.756Z,-0.60
2023-01-29T08:55:07.906Z,-0.60
2023-01-29T08:57:34.569Z,-0.50
2023-01-29T09:00:01.370Z,-0.50
2023-01-29T09:02:28.144Z,-0.40
2023-01-29T09:04:54.819Z,-0.40
2023-01-29T09:07:21.774Z,-0.40
2023-01-29T09:09:48.638Z,-0.20
2023-01-29T09:12:15.348Z,-0.30
2023-01-29T09:14:42.072Z,-0.30
2023-01-29T09:17:08.757Z,-0.20
2023-01-29T09:39:27.022Z,-0.30
2023-01-29T09:42:05.416Z,-0.20
2023-01-29T09:44:49.732Z,-0.20
2023-01-29T09:47:20.394Z,-0.20
2023-01-29T09:50:47.136Z,-0.10
2023-01-29T09:53:21.531Z,0.00
2023-01-29T09:56:14.424Z,0.10
2023-01-29T09:58:42.025Z,0.20
2023-01-29T10:01:14.182Z,0.20
2023-01-29T10:04:06.001Z,0.20
2023-01-29T10:06:44.965Z,0.50
2023-01-29T10:09:48.514Z,0.50
2023-01-29T10:12:30.224Z,0.50
2023-01-29T10:14:59.740Z,0.60
2023-01-29T10:17:49.529Z,0.60
2023-01-29T10:20:33.764Z,0.50
2023-01-29T10:23:34.639Z,0.50
2023-01-29T10:26:03.757Z,0.50
2023-01-29T10:28:39.437Z,0.40
2023-01-29T10:31:27.658Z,0.40
2023-01-29T10:37:56.303Z,0.50
2023-01-29T10:40:34.847Z,0.50
2023-01-29T10:43:10.446Z,0.60
2023-01-29T10:45:39.869Z,0.60
2023-01-29T10:48:37.012Z,0.60
2023-01-29T10:51:12.040Z,0.50
2023-01-29T10:58:17.330Z,0.50
2023-01-29T11:00:44.199Z,0.50
2023-01-29T11:03:27.922Z,0.50
2023-01-29T11:06:02.960Z,0.50
2023-01-29T11:09:01.666Z,0.70
2023-01-29T11:11:52.677Z,0.70
2023-01-29T11:14:27.050Z,0.80
2023-01-29T11:16:53.924Z,0.80
2023-01-29T11:19:39.038Z,0.70
2023-01-29T11:22:09.115Z,0.80
2023-01-29T11:24:35.800Z,0.80
2023-01-29T11:27:04.369Z,1.00
2023-01-29T11:29:38.243Z,1.00
2023-01-29T11:32:21.227Z,1.10
2023-01-29T11:35:05.827Z,1.10
2023-01-29T11:37:40.180Z,1.10
2023-01-29T11:40:19.343Z,1.10
2023-01-29T11:42:47.224Z,1.30
2023-01-29T11:45:23.011Z,1.40
2023-01-29T11:47:50.691Z,1.40
2023-01-29T11:50:22.530Z,1.40
2023-01-29T11:52:52.356Z,1.40
2023-01-29T11:55:21.277Z,1.50
2023-01-29T11:58:14.879Z,1.70
2023-01-29T12:00:41.571Z,1.90
2023-01-29T12:03:20.053Z,1.90
2023-01-29T12:06:28.251Z,1.90
2023-01-29T12:08:59.826Z,1.80
2023-01-29T12:11:33.832Z,1.80
2023-01-29T12:14:02.418Z,1.80
2023-01-29T12:16:48.292Z,1.90
2023-01-29T12:19:46.070Z,1.80
2023-01-29T12:26:40.239Z,1.60
2023-01-29T12:29:30.009Z,1.80
2023-01-29T12:32:19.602Z,1.60
2023-01-29T12:34:50.226Z,1.60
2023-01-29T12:37:39.802Z,1.60
2023-01-29T12:40:16.831Z,1.50
2023-01-29T12:42:50.228Z,1.50
2023-01-29T12:45:19.529Z,1.60
2023-01-29T12:48:08.335Z,1.60
2023-01-29T12:50:43.139Z,1.60
2023-01-29T12:53:33.322Z,1.60
2023-01-29T12:56:12.907Z,1.60
2023-01-29T12:58:48.744Z,1.70
2023-01-29T13:01:45.855Z,1.80
2023-01-29T13:04:21.358Z,2.20
2023-01-29T13:07:31.960Z,3.40
2023-01-29T13:10:33.112Z,4.70
2023-01-29T13:13:31.400Z,5.90
2023-01-29T13:16:38.240Z,6.30
2023-01-29T13:19:47.066Z,6.00
2023-01-29T13:22:33.639Z,6.20
2023-01-29T13:25:24.025Z,6.70
2023-01-29T13:27:50.830Z,7.70
2023-01-29T13:30:29.281Z,7.60
2023-01-29T13:33:08.281Z,7.50
2023-01-29T13:35:42.601Z,7.70
2023-01-29T13:38:31.564Z,7.80
2023-01-29T13:44:30.417Z,7.70
2023-01-29T13:47:15.356Z,6.80
2023-01-29T13:49:46.858Z,5.90
2023-01-29T13:52:27.790Z,4.80
2023-01-29T13:55:18.116Z,4.10
2023-01-29T13:57:44.950Z,3.70
2023-01-29T14:00:35.174Z,3.40
2023-01-29T14:03:11.568Z,3.20
2023-01-29T14:05:54.377Z,3.00
2023-01-29T14:08:40.378Z,3.10
2023-01-29T14:11:13.110Z,3.00
2023-01-29T14:13:39.842Z,2.80
2023-01-29T14:16:09.763Z,2.80
2023-01-29T14:18:36.931Z,2.80
2023-01-29T14:21:17.508Z,2.80
2023-01-29T14:23:46.739Z,2.70
2023-01-29T14:26:30.317Z,2.60
2023-01-29T14:29:05.993Z,2.50
2023-01-29T14:31:47.378Z,2.50
2023-01-29T14:34:35.758Z,2.50
2023-01-29T14:37:24.424Z,2.50
2023-01-29T14:39:53.133Z,2.50
2023-01-29T14:42:27.046Z,2.40
2023-01-29T14:45:07.719Z,2.40
2023-01-29T14:47:34.401Z,2.30
2023-01-29T14:50:01.965Z,2.20
2023-01-29T14:52:37.408Z,2.20
2023-01-29T14:55:07.458Z,2.20
2023-01-29T14:57:34.157Z,2.20
2023-01-29T15:00:03.619Z,2.10
2023-01-29T15:02:43.896Z,2.10
2023-01-29T15:05:21.683Z,2.10
2023-01-29T15:08:00.651Z,2.00
2023-01-29T15:11:09.243Z,2.00
2023-01-29T15:13:57.850Z,2.00
2023-01-29T15:16:31.160Z,2.00
2023-01-29T15:19:08.026Z,1.90
2023-01-29T15:21:34.687Z,1.80
2023-01-29T15:24:06.094Z,1.80
2023-01-29T15:26:32.851Z,1.70
2023-01-29T15:29:05.033Z,1.60
2023-01-29T15:31:32.168Z,1.60
2023-01-29T15:34:00.125Z,1.60
2023-01-29T15:36:30.577Z,1.60
2023-01-29T15:39:09.486Z,1.50
2023-01-29T15:41:36.203Z,1.50
2023-01-29T15:44:03.019Z,1.50
2023-01-29T15:46:37.376Z,1.50
2023-01-29T15:49:08.727Z,1.40
2023-01-29T15:51:35.402Z,1.40
2023-01-29T15:54:03.717Z,1.30
2023-01-29T15:56:39.284Z,1.20
2023-01-29T15:59:09.655Z,1.20
2023-01-29T16:01:38.958Z,1.20
2023-01-29T16:04:06.526Z,1.10
2023-01-29T16:06:37.533Z,1.10
2023-01-29T16:09:04.423Z,1.10
2023-01-29T16:11:31.133Z,1.00
2023-01-29T16:14:00.013Z,1.00
2023-01-29T16:16:27.594Z,0.90
2023-01-29T16:19:00.394Z,1.00
2023-01-29T16:21:36.582Z,0.90
2023-01-29T16:24:11.732Z,0.90
2023-01-29T16:26:42.385Z,0.80
2023-01-29T16:29:13.687Z,0.80
2023-01-29T16:31:40.634Z,0.80
2023-01-29T16:34:09.194Z,0.70
2023-01-29T16:36:35.989Z,0.70
2023-01-29T16:39:05.330Z,0.70
2023-01-29T16:41:33.474Z,0.60
2023-01-29T16:44:04.531Z,0.60
2023-01-29T16:46:38.147Z,0.60
2023-01-29T16:49:30.855Z,0.60
2023-01-29T16:52:15.539Z,0.50
2023-01-29T16:54:42.676Z,0.50
2023-01-29T16:57:21.540Z,0.40
2023-01-29T16:59:48.685Z,0.40
2023-01-29T17:02:28.167Z,0.30
2023-01-29T17:04:57.834Z,0.30
2023-01-29T17:07:24.576Z,0.30
2023-01-29T17:09:55.819Z,0.30
2023-01-29T17:13:10.217Z,0.40
2023-01-29T17:16:23.418Z,0.40
2023-01-29T17:18:50.534Z,0.40
2023-01-29T17:21:17.516Z,0.40
2023-01-29T17:23:44.229Z,0.40
2023-01-29T17:26:13.166Z,0.40
2023-01-29T17:28:40.633Z,0.40
2023-01-29T17:31:07.795Z,0.40
2023-01-29T17:33:41.009Z,0.40
2023-01-29T17:36:12.405Z,0.40
2023-01-29T17:38:39.408Z,0.50
2023-01-29T17:41:11.590Z,0.40
2023-01-29T17:43:38.384Z,0.40
2023-01-29T17:46:05.093Z,0.40
2023-01-29T17:48:31.853Z,0.50
2023-01-29T17:51:03.246Z,0.50
2023-01-29T17:53:44.218Z,0.40
2023-01-29T17:56:14.817Z,0.40
2023-01-29T17:58:41.969Z,0.50
2023-01-29T18:01:08.671Z,0.50
2023-01-29T18:03:35.358Z,0.50
2023-01-29T18:06:02.159Z,0.50
2023-01-29T18:08:33.626Z,0.50
2023-01-29T18:11:00.517Z,0.50
2023-01-29T18:13:27.728Z,0.60
2023-01-29T18:15:54.638Z,0.50
2023-01-29T18:18:22.637Z,0.50
2023-01-29T18:20:49.945Z,0.50
2023-01-29T18:23:16.709Z,0.50
2023-01-29T18:25:44.902Z,0.50
2023-01-29T18:28:14.726Z,0.40
2023-01-29T18:30:43.419Z,0.40
2023-01-29T18:33:10.771Z,0.40
2023-01-29T18:35:37.512Z,0.40
2023-01-29T18:38:04.262Z,0.40
2023-01-29T18:40:31.705Z,0.30
2023-01-29T18:43:01.107Z,0.30
2023-01-29T18:45:28.890Z,0.20
2023-01-29T18:47:55.877Z,0.30
2023-01-29T18:50:26.279Z,0.30
2023-01-29T18:52:53.611Z,0.30
2023-01-29T18:55:20.410Z,0.40
2023-01-29T18:58:27.048Z,0.40
2023-01-29T19:00:33.823Z,0.40
2023-01-29T19:03:00.733Z,0.50
2023-01-29T19:05:27.434Z,0.60
2023-01-29T19:07:54.213Z,0.60
2023-01-29T19:10:20.891Z,0.70
2023-01-29T19:12:47.619Z,0.70
2023-01-29T19:15:14.595Z,0.70
2023-01-29T19:17:41.437Z,0.70
2023-01-29T19:20:09.575Z,0.70
2023-01-29T19:22:36.326Z,0.60
2023-01-29T19:25:03.677Z,0.60
2023-01-29T19:27:30.480Z,0.60
2023-01-29T19:30:00.398Z,0.70
2023-01-29T19:32:28.800Z,0.70
2023-01-29T19:34:55.587Z,0.70
2023-01-29T19:37:22.398Z,0.70
2023-01-29T19:39:49.135Z,0.70
2023-01-29T19:42:15.987Z,0.80
2023-01-29T19:44:42.838Z,0.80
2023-01-29T19:47:09.621Z,0.80
2023-01-29T19:49:36.412Z,0.80
2023-01-29T19:52:03.290Z,0.80
2023-01-29T19:54:30.248Z,0.80
2023-01-29T19:56:57.023Z,0.80
2023-01-29T19:59:23.958Z,0.80
2023-01-29T20:01:50.702Z,0.80
2023-01-29T20:04:17.542Z,0.80
2023-01-29T20:06:44.526Z,0.80
2023-01-29T20:09:11.433Z,0.80
2023-01-29T20:11:38.238Z,0.80
2023-01-29T20:14:04.998Z,0.80
2023-01-29T20:16:31.965Z,0.80
2023-01-29T20:19:14.637Z,0.80
2023-01-29T20:21:42.234Z,0.80
2023-01-29T20:24:12.499Z,0.70
2023-01-29T20:26:39.568Z,0.80
2023-01-29T20:29:06.515Z,0.70
2023-01-29T20:31:33.388Z,0.70
2023-01-29T20:34:00.213Z,0.80
2023-01-29T20:36:26.980Z,0.70
2023-01-29T20:38:53.709Z,0.80
2023-01-29T20:41:21.065Z,0.70
2023-01-29T20:43:50.063Z,0.70
2023-01-29T20:46:16.839Z,0.70
2023-01-29T20:48:43.567Z,0.70
2023-01-29T20:51:15.526Z,0.70
2023-01-29T20:53:45.949Z,0.70
2023-01-29T20:56:13.547Z,0.70
2023-01-29T20:58:42.981Z,0.70
2023-01-29T21:01:10.662Z,0.70
2023-01-29T21:03:38.425Z,0.70
2023-01-29T21:06:05.881Z,0.70
2023-01-29T21:08:33.280Z,0.70
2023-01-29T21:10:59.937Z,0.70
2023-01-29T21:13:26.747Z,0.60
2023-01-29T21:15:53.585Z,0.70
2023-01-29T21:18:20.410Z,0.70
2023-01-29T21:20:49.471Z,0.70
2023-01-29T21:23:16.400Z,0.70
2023-01-29T21:25:44.660Z,0.70
2023-01-29T21:28:11.898Z,0.70
2023-01-29T21:30:38.974Z,0.60
2023-01-29T21:33:05.846Z,0.70
2023-01-29T21:35:32.882Z,0.70
2023-01-29T21:37:59.718Z,0.70
2023-01-29T21:40:27.003Z,0.60
2023-01-29T21:43:11.726Z,0.60
2023-01-29T21:45:39.156Z,0.60
2023-01-29T21:48:06.576Z,0.60
2023-01-29T21:50:33.335Z,0.70
2023-01-29T21:53:00.430Z,0.70
2023-01-29T21:55:27.196Z,0.70
2023-01-29T21:57:53.964Z,0.60
2023-01-29T22:00:20.961Z,0.60
2023-01-29T22:02:49.832Z,0.70
2023-01-29T22:05:19.728Z,0.70
2023-01-29T22:07:47.872Z,0.70
2023-01-29T22:10:15.665Z,0.70
2023-01-29T22:12:43.716Z,0.70
2023-01-29T22:15:11.160Z,0.70
2023-01-29T22:17:41.017Z,0.70
2023-01-29T22:20:11.933Z,0.70
2023-01-29T22:22:38.725Z,0.70
2023-01-29T22:25:05.869Z,0.70
2023-01-29T22:27:33.384Z,0.70
2023-01-29T22:30:00.263Z,0.80
2023-01-29T22:32:27.126Z,0.80
2023-01-29T22:34:53.967Z,0.80
2023-01-29T22:37:20.622Z,0.80
2023-01-29T22:39:47.418Z,0.80
2023-01-29T22:42:16.715Z,0.80
2023-01-29T22:44:43.772Z,0.80
2023-01-29T22:47:10.746Z,0.80
2023-01-29T22:49:37.516Z,0.80
2023-01-29T22:52:10.408Z,0.80
2023-01-29T22:54:41.819Z,0.80
2023-01-29T22:57:10.356Z,0.80
2023-01-29T22:59:37.460Z,0.70
2023-01-29T23:02:04.649Z,0.70
2023-01-29T23:04:31.457Z,0.70
2023-01-29T23:06:58.225Z,0.80
2023-01-29T23:09:24.921Z,0.80
2023-01-29T23:11:51.640Z,0.70
2023-01-29T23:14:18.390Z,0.70
2023-01-29T23:16:45.072Z,0.70
2023-01-29T23:19:12.203Z,0.70
2023-01-29T23:21:39.577Z,0.70
2023-01-29T23:24:07.304Z,0.80
2023-01-29T23:26:52.359Z,0.80
2023-01-29T23:29:19.079Z,0.80
2023-01-29T23:31:45.835Z,0.80
2023-01-29T23:34:13.559Z,0.80
2023-01-29T23:36:40.408Z,0.80
2023-01-29T23:39:07.103Z,0.80
2023-01-29T23:41:33.899Z,0.90
2023-01-29T23:44:00.617Z,0.80
2023-01-29T23:46:27.334Z,0.80
2023-01-29T23:48:54.021Z,0.90
2023-01-29T23:51:20.734Z,0.90
2023-01-29T23:53:47.491Z,0.90
2023-01-29T23:56:14.259Z,0.80
2023-01-29T23:58:41.020Z,0.80
